の過去48時間の天気

Polyarny

現在時刻: 9/17 20:24 +09 (9/17 11:24 UTC) 以下の時間は現地時間です。

過去48時間のMETAR気象情報
時間 風向 風速(m/s) 視程 気温(℃) 湿度(%) 気圧(hPa) 天気現象
17 20:00 不定 1 10km以上 -3 80 1016
17 19:30 不定 1 10km以上 -3 80 1016
17 19:00 1 10km以上 -2 80 1016
17 18:30 1 10km以上 -2 86 1015
17 18:00 1 10km以上 0 74 1015
17 17:30 1 10km以上 1 69 1015
17 17:00 1 10km以上 0 74 1015
17 16:30 1 10km以上 0 74 1015
17 16:00 南南東 1 10km以上 0 74 1014
17 15:30 南南東 1 10km以上 0 74 1014
17 15:00 南南東 1 10km以上 0 74 1014
17 14:30 1 10km以上 0 74 1014
17 14:00 1 10km以上 0 74 1014
17 13:30 1 10km以上 0 74 1014
17 13:00 2 10km以上 -1 80 1013
17 12:30 1 10km以上 -1 80 1013
17 12:00 1 10km以上 -1 74 1013
17 11:30 1 10km以上 -2 80 1013
17 11:00 南南西 2 10km以上 -3 86 1013
17 10:30 南西 1 10km以上 -4 86 1013
17 10:00 南西 1 10km以上 -4 86 1013
17 09:30 南南西 1 10km以上 -4 86 1013
17 09:00 南南西 1 10km以上 -5 93 1012
17 08:30 南南西 2 10km以上 -6 93 1012
17 08:00 南西 1 10km以上 -6 93 1012
17 07:30 南南西 2 10km以上 -7 100 1012
17 07:00 南南西 2 10km以上 -7 93 1011
17 06:30 南南西 2 10km以上 -7 100 1011
17 06:00 南南西 1 10km以上 -6 93 1011
17 05:00 南西 2 10km以上 - - 1010
17 04:00 西南西 3 10km以上 -5 100 1010
17 03:00 西南西 3 10km以上 -4 100 1009
17 02:00 西南西 3 10km以上 -4 100 1009
17 01:00 西南西 2 10km以上 -4 100 1009
17 00:00 南西 3 10km以上 -2 93 1008
16 23:00 南西 2 10km以上 -3 100 1008
16 22:30 南西 3 10km以上 -3 100 1008
16 22:00 南西 2 10km以上 -3 93 1007
16 21:30 南西 2 7000m -3 93 1007
16 21:00 南西 2 2500m -3 100 1007 もや
16 20:30 西南西 2 10km以上 -3 100 1007
16 20:00 南西 3 6000m -2 93 1006
16 19:00 南西 3 10km以上 -1 93 1005
16 18:00 南西 2 1200m -1 100 1005 しゅう雪 もや
16 17:00 南南西 2 5000m 0 100 1003 もや
16 16:00 南南西 2 2100m 0 93 1003 もや
16 15:00 南南西 2 2500m -1 100 1002 もや
16 14:00 南西 1 1200m -1 100 1001 しゅう雪 もや
16 13:00 西南西 2 1200m -1 100 1000 しゅう雪 もや
16 12:00 西南西 3 700m -2 100 999 氷霧 強い雪
16 11:00 西南西 3 700m -3 100 999 氷霧 強い雪
16 10:00 西 3 600m -4 100 998 氷霧 強い雪
16 09:30 西 3 600m -4 100 998 氷霧 強い雪
16 09:00 西 3 700m -4 100 998 氷霧 強い雪
16 08:30 西 3 600m -4 100 998 氷霧 強い雪
16 08:00 西 3 1100m -5 100 998 雪 もや
16 07:30 西 3 1100m -5 100 998 雪 もや
16 07:00 西 4 1100m -5 100 998 雪 もや
16 06:30 西 4 1100m -5 100 998 雪 もや
16 06:00 西北西 4 1100m -5 100 998 雪 もや
16 05:00 西 3 1100m -5 93 999 雪 もや
16 04:00 西 4 1100m -6 100 999 雪 もや
16 03:00 西北西 3 2200m -6 93 1000 弱い雪 もや
16 02:00 西北西 2 4000m -6 100 1001 弱い雪 もや
16 01:00 北北西 2 10km以上 -6 100 1001
16 00:00 不定 1 10km以上 -5 93 1002
15 23:00 北北東 2 10km以上 -5 93 1002
15 22:00 北北東 3 10km以上 -6 100 1002
15 21:00 北東 3 10km以上 -4 93 1002
UERP 171100Z VRB01MPS 9999 FEW040 BKN100 M03/M06 Q1016 R35/190145 NOSIG RMK QFE718
UERP 171030Z VRB01MPS 9999 SCT040 BKN100 M03/M06 Q1016 R35/190145 NOSIG RMK QFE718
UERP 171000Z 18001MPS 9999 SCT040 BKN100 M02/M05 Q1016 R35/190145 NOSIG RMK QFE718
UERP 170930Z 17001MPS 9999 SCT033 BKN100 M02/M04 Q1015 R35/190145 NOSIG RMK QFE717
UERP 170900Z 17001MPS 9999 SCT033 BKN100 00/M04 Q1015 R35/190145 NOSIG RMK QFE717
UERP 170830Z 17001MPS 9999 SCT033 BKN100 01/M04 Q1015 R35/190145 NOSIG RMK QFE717
UERP 170800Z 17001MPS 9999 BKN030 OVC100 00/M04 Q1015 R35/190145 NOSIG RMK QFE717
UERP 170730Z 17001MPS 9999 BKN030 OVC100 00/M04 Q1015 R35/190145 NOSIG RMK QFE717
UERP 170700Z 16001MPS 9999 BKN030 OVC100 00/M04 Q1014 R35/190145 NOSIG RMK QFE717
UERP 170630Z 15001MPS 9999 BKN026 OVC100 00/M04 Q1014 R35/190145 NOSIG RMK QFE717
UERP 170600Z 15001MPS 9999 BKN026 OVC100 00/M04 Q1014 R35/190145 NOSIG RMK QFE716
UERP 170530Z 17001MPS 9999 BKN020 OVC100 M00/M04 Q1014 R35/190145 NOSIG RMK QFE716
UERP 170500Z 17001MPS 9999 BKN020 OVC100 M00/M04 Q1014 R35/190145 NOSIG RMK QFE716
UERP 170430Z 18001MPS 9999 BKN033 OVC100 M00/M04 Q1014 R35/490140 NOSIG RMK QFE716
UERP 170400Z 17002MPS 9999 SCT033 BKN100 M01/M04 Q1013 R35/490140 NOSIG RMK QFE716
UERP 170330Z 18001MPS 9999 SCT033 BKN100 M01/M04 Q1013 R35/490140 NOSIG RMK QFE716
UERP 170300Z 18001MPS 9999 SCT033 BKN100 M01/M05 Q1013 R35/490140 NOSIG RMK QFE716
UERP 170230Z 19001MPS 9999 BKN033 OVC100 M02/M05 Q1013 R35/490140 NOSIG RMK QFE716
UERP 170200Z 20002MPS 9999 BKN033 OVC100 M03/M05 Q1013 R35/490140 NOSIG RMK QFE716
UERP 170130Z 22001MPS 9999 BKN033 OVC100 M04/M06 Q1013 R35/490140 NOSIG RMK QFE715
UERP 170100Z 22001MPS 9999 BKN033 OVC100 M04/M06 Q1013 R35/490140 NOSIG RMK QFE715
UERP 170030Z 21001MPS 9999 BKN033 OVC100 M04/M06 Q1013 R35/490140 NOSIG RMK QFE715
UERP 170000Z 20001MPS 9999 SCT033 BKN100 M05/M06 Q1012 R35/490140 NOSIG RMK QFE715
UERP 162330Z 21002MPS 9999 SCT030 BKN100 M06/M07 Q1012 R35/490140 NOSIG RMK QFE715
UERP 162300Z 22001MPS 9999 SCT033 BKN100 M06/M07 Q1012 R35/490132 NOSIG RMK QFE715
UERP 162230Z 21002MPS 9999 SCT040 BKN100 M07/M07 Q1012 R35/490132 NOSIG RMK QFE715
UERP 162200Z 20002MPS 9999 SCT023 BKN100 M07/M08 Q1011 R35/490132 NOSIG RMK QFE714
UERP 162130Z 20002MPS 9999 SCT020 OVC100 M07/M07 Q1011 R35/490132 NOSIG RMK QFE714
UERP 162100Z 21001MPS 9999 SCT020 BKN100 M06/M07 Q1011 R35/490132 NOSIG RMK QFE714
UERP 162000Z 23002MPS 9999 BKN016 BKN100 M0/M06 Q1010 R35/490132 NOSIG RMK QFE714
UERP 161900Z 24003MPS 9999 BKN016 OVC100 M05/M05 Q1010 R35/490132 NOSIG RMK QFE713
UERP 161800Z 25003MPS 9999 BKN016 OVC100 M04/M04 Q1009 R35/490132 NOSIG RMK QFE713
UERP 161700Z 24003MPS 9999 BKN018 OVC100 M04/M04 Q1009 R35/490132 NOSIG RMK QFE713
UERP 161600Z 24002MPS 9999 BKN020 OVC100 M04/M04 Q1009 R35/490132 NOSIG RMK QFE712
UERP 161500Z 22003MPS 9999 BKN016CB OVC100 M02/M03 Q1008 R35/490132 NOSIG RMK QFE712
UERP 161400Z 22002MPS 9999 BKN017CB OVC100 M03/M03 Q1008 R35/490132 NOSIG RMK QFE712
UERP 161330Z 23003MPS 9999 BKN016CB OVC100 M03/M03 Q1008 R35/490132 NOSIG RMK QFE712
UERP 161300Z 23002MPS 9999 BKN016CB OVC100 M03/M04 Q1007 R35/490132 NOSIG RMK QFE711
UERP 161230Z 22002MPS 7000 BKN015CB OVC100 M03/M04 Q1007 R35/490132 NOSIG RMK QFE711
UERP 161200Z 23002MPS 2500 BR BKN010CB OVC100 M03/M03 Q1007 R35/190050 NOSIG RMK QFE711
UERP 161130Z 24002MPS 9999 BKN010CB OVC100 M03/M03 Q1007 R35/190050 NOSIG RMK QFE711
UERP 161100Z 23003MPS 6000 BKN008CB OVC100 M02/M03 Q1006 R35/190050 NOSIG RMK QFE711
UERP 161000Z 23003MPS 9999 BKN013CB OVC100 M01/M02 Q1005 R35/499926 NOSIG RMK QFE710
UERP 160900Z 23002MPS 1200 R35/1200 SHSN BR VV004 M01/M01 Q1005 R35/499926 NOSIG RMK QBB120 QFE709
UERP 160800Z 20002MPS 5000 BR BKN010CB BKN100 M00/M00 Q1003 R35/499926 NOSIG RMK QFE708
UERP 160700Z 20002MPS 2100 BR BKN008CB OVC100 M00/M01 Q1003 R35/499926 NOSIG RMK QFE708
UERP 160600Z 20002MPS 2500 BR BKN008CB OVC100 M01/M01 Q1002 R35/499926 NOSIG RMK QFE707
UERP 160500Z 23001MPS 1200 R35/1200 SHSN BR VV003 M01/M01 Q1001 R35/499926 NOSIG RMK QBB100 QFE707
UERP 160400Z 25002MPS 1200 R35/1200 SHSN BR VV003 M01/M01 Q1000 R35/499926 NOSIG RMK QBB100 QFE706
UERP 160300Z 24003MPS 0700 R35/0900 +SN FZFG VV003 M02/M02 Q0999 R35/499926 NOSIG RMK QBB090 QFE705
UERP 160200Z 25003MPS 0700 R35/0900 +SN FZFG VV002 M03/M03 Q0999 R35/499926 NOSIG RMK QBB070 QFE705
UERP 160100Z 26003G08MPS 0600 R35/0900 +SN FZFG VV001 M04/M04 Q0998 R35/499926 NOSIG RMK QBB050 QFE704
UERP 160030Z 26003G08MPS 0600 R35/0900 +SN FZFG VV001 M04/M04 Q0998 R35/499926 NOSIG RMK QBB050 QFE704
UERP 160000Z 26003G08MPS 0700 R35/0900 +SN FZFG VV001 M04/M04 Q0998 R35/499926 NOSIG RMK QBB050 QFE704
UERP 152330Z 26003G08MPS 0600 R35/0900 +SN FZFG VV001 M04/M04 Q0998 R35/499926 NOSIG RMK QBB050 QFE704
UERP 152300Z 27003G08MPS 1100 R35/1100 SN BR VV002 M05/M05 Q0998 NOSIG RMK QBB060 QFE704
UERP 152230Z 28003G08MPS 1100 R35/1100 SN BR VV002 M05/M05 Q0998 NOSIG RMK QBB060 QFE704
UERP 152200Z 28004G09MPS 1100 R35/1100 SN BR VV002 M05/M05 Q0998 NOSIG RMK QBB060 QFE704
UERP 152130Z 28004G09MPS 1100 R35/1200 SN BR VV005 M05/M05 Q0998 NOSIG RMK QBB160 QFE704
UERP 152100Z 29004G09MPS 1100 R35/P2000 SN BR VV006 M05/M05 Q0998 NOSIG RMK QBB190 QFE705
UERP 152000Z 28003G08MPS 1100 R35/P2000 SN BR VV005 M05/M06 Q0999 NOSIG RMK QBB170 QFE705
UERP 151900Z 28004MPS 1100 R35/P2000 SN BR VV007 M06/M06 Q0999 NOSIG RMK QFE705
UERP 151800Z 29003MPS 2200 -SN BR BKN008 OVC100 M06/M07 Q1000 NOSIG RMK QFE706
UERP 151700Z 30002MPS 4000 -SN BR BKN013 OVC100 M06/M06 Q1001 NOSIG RMK QFE706
UERP 151600Z 34002MPS 9999 BKN016 OVC100 M06/M06 Q1001 NOSIG RMK QFE707
UERP 151500Z VRB01MPS 9999 SCT020 OVC100 M05/M06 Q1002 NOSIG RMK QFE707
UERP 151400Z 03002MPS 9999 SCT020 OVC100 M05/M06 Q1002 NOSIG RMK QFE707
UERP 151300Z 02003MPS 9999 SCT020 OVC100 M06/M06 Q1002 NOSIG RMK QFE707
UERP 151200Z 04003MPS 9999 SCT020 BKN100 M04/M05 Q1002 NOSIG RMK QFE707